Time;durP1;ratioP1;P1;durP2;ratioP2;P2;SDS_P1;SDS_P2;PMS_P1;PMS_P2;Temp;Humidity;BMP_temperature;BMP_pressure;BME280_temperature;BME280_humidity;BME280_pressure;Samples;Min_cycle;Max_cycle;Signal;HPM_P1;HPM_P2
2022/12/04 00:05:22;;;;;;;20.95;9.10;;;;;;;2.20;100.00;100597.75;6102156;23;20002;-96
2022/12/04 00:07:51;;;;;;;21.98;8.57;;;;;;;2.14;100.00;100591.06;6101314;23;20013;-95
2022/12/04 00:10:45;;;;;;;18.65;8.50;;;;;;;2.04;100.00;100584.50;6101796;23;20010;-96
2022/12/04 00:13:18;;;;;;;18.50;8.25;;;;;;;2.04;100.00;100578.56;6098567;23;20010;-96
2022/12/04 00:15:49;;;;;;;18.92;8.07;;;;;;;2.01;100.00;100571.00;6130080;23;20066;-96
2022/12/04 00:18:44;;;;;;;17.25;8.38;;;;;;;1.99;100.00;100580.38;6104151;23;20006;-96
2022/12/04 00:21:28;;;;;;;17.27;7.82;;;;;;;2.06;100.00;100572.56;6102297;23;20037;-96
2022/12/04 00:24:00;;;;;;;17.83;8.50;;;;;;;2.07;100.00;100569.19;6102098;23;20010;-96
2022/12/04 00:26:33;;;;;;;19.15;8.02;;;;;;;2.12;100.00;100557.19;6103561;23;20013;-95
2022/12/04 00:29:27;;;;;;;23.17;10.57;;;;;;;2.02;100.00;100565.03;6103675;23;20006;-96
2022/12/04 00:32:03;;;;;;;17.40;7.88;;;;;;;2.05;100.00;100576.00;6104353;23;20006;-96
2022/12/04 00:35:12;;;;;;;20.02;8.88;;;;;;;2.11;100.00;100601.31;6105691;23;20011;-96
2022/12/04 00:41:07;;;;;;;;;;;;;;;;;;;;;
2022/12/04 00:44:01;;;;;;;;;;;;;;;2.20;100.00;100599.47;6104837;23;20409;-96
2022/12/04 00:46:56;;;;;;;14.98;6.50;;;;;;;2.06;98.41;100559.84;6103428;23;19909;-96
2022/12/04 00:49:42;;;;;;;13.70;7.10;;;;;;;2.14;97.17;100544.41;6102658;23;20425;-96
2022/12/04 00:52:32;;;;;;;13.60;6.88;;;;;;;2.08;98.49;100557.28;6103730;23;19998;-96
2022/12/04 00:58:13;;;;;;;;;;;;;;;;;;;;;
2022/12/04 01:01:18;;;;;;;15.30;6.55;;;;;;;2.40;96.80;100559.13;6101917;23;20044;-96
2022/12/04 01:03:54;;;;;;;12.63;6.07;;;;;;;2.55;96.15;100589.38;6101655;23;20011;-96
2022/12/04 01:06:43;;;;;;;17.25;7.20;;;;;;;2.32;96.20;100563.56;6101106;23;20014;-96
2022/12/04 01:09:23;;;;;;;15.63;6.97;;;;;;;2.25;96.29;100541.66;6101092;23;20007;-96
2022/12/04 01:12:22;;;;;;;20.08;7.32;;;;;;;2.30;96.03;100550.03;6097399;23;20010;-96
2022/12/04 01:15:07;;;;;;;10.98;6.32;;;;;;;2.31;96.31;100546.59;6102952;23;20017;-96
2022/12/04 01:17:49;;;;;;;16.15;6.70;;;;;;;2.40;96.05;100540.47;6102046;23;20574;-96
2022/12/04 01:21:01;;;;;;;17.17;6.75;;;;;;;2.39;95.65;100543.88;6101561;23;20007;-96
2022/12/04 01:23:37;;;;;;;;;;;;;;;2.63;95.93;100575.63;6102451;23;20013;-96
2022/12/04 01:29:07;;;;;;;17.58;7.32;;;;;;;2.52;95.71;100535.94;6100670;23;20045;-96
2022/12/04 01:31:50;;;;;;;11.75;6.47;;;;;;;2.46;96.60;100525.88;6102648;23;20014;-96
2022/12/04 01:34:24;;;;;;;16.15;6.28;;;;;;;2.40;96.52;100525.19;6100909;23;20006;-96
2022/12/04 01:37:03;;;;;;;14.65;6.35;;;;;;;2.29;96.76;100523.72;6100870;23;20089;-96
2022/12/04 01:39:54;;;;;;;16.13;6.97;;;;;;;2.25;96.42;100526.38;6100592;23;20441;-96
2022/12/04 01:42:28;;;;;;;13.80;6.32;;;;;;;2.05;98.83;100535.28;6102968;23;20025;-96
2022/12/04 01:45:36;;;;;;;10.35;5.43;;;;;;;2.26;98.21;100558.59;6099776;23;20017;-96
2022/12/04 01:48:21;;;;;;;12.40;6.50;;;;;;;1.88;98.26;100522.06;6099751;23;20095;-96
2022/12/04 01:51:15;;;;;;;12.88;6.35;;;;;;;1.89;99.12;100531.34;6099950;23;20010;-96
2022/12/04 01:53:53;;;;;;;16.05;6.07;;;;;;;2.00;98.22;100531.13;6093302;23;20006;-96
2022/12/04 01:56:25;;;;;;;13.85;6.38;;;;;;;2.03;98.43;100526.00;6100428;23;20003;-96
2022/12/04 01:58:54;;;;;;;16.92;7.20;;;;;;;2.00;98.31;100528.56;6101085;23;20007;-95
2022/12/04 02:01:45;;;;;;;8.25;5.35;;;;;;;2.20;96.39;100520.53;6101148;23;20014;-96
2022/12/04 02:04:19;;;;;;;10.85;5.43;;;;;;;2.27;97.34;100539.91;6100366;23;20089;-96
2022/12/04 02:06:49;;;;;;;13.55;4.88;;;;;;;2.36;96.64;100542.22;6099030;23;20010;-96
2022/12/04 02:09:16;;;;;;;11.98;6.07;;;;;;;2.23;96.77;100523.84;6097937;23;20007;-95
2022/12/04 02:12:12;;;;;;;11.80;5.13;;;;;;;2.38;96.60;100548.13;6098972;23;20421;-96
2022/12/04 02:15:13;;;;;;;16.13;6.10;;;;;;;2.07;96.39;100525.91;6097840;23;20036;-96
2022/12/04 02:18:09;;;;;;;11.57;5.38;;;;;;;1.99;97.86;100539.63;6087886;23;20053;-96
2022/12/04 02:20:59;;;;;;;;;;;;;;;;;;;;;
2022/12/04 02:23:54;;;;;;;14.80;5.18;;;;;;;1.70;99.12;100524.06;6099852;23;20089;-96
2022/12/04 02:26:59;;;;;;;15.98;6.03;;;;;;;1.64;100.00;100539.47;6099719;23;20006;-95
2022/12/04 02:29:34;;;;;;;12.95;5.15;;;;;;;1.45;100.00;100538.97;6100537;23;20010;-96
2022/12/04 02:32:25;;;;;;;10.77;5.55;;;;;;;1.05;100.00;100504.09;6100311;23;20089;-96
2022/12/04 02:34:57;;;;;;;18.35;6.53;;;;;;;1.13;100.00;100541.25;6099001;23;20090;-95
2022/12/04 02:37:44;;;;;;;16.23;6.10;;;;;;;0.96;100.00;100503.41;6100140;23;20018;-96
2022/12/04 02:40:28;;;;;;;13.88;5.45;;;;;;;1.12;100.00;100544.63;6100562;23;20006;-96
2022/12/04 02:43:08;;;;;;;11.13;4.97;;;;;;;0.81;100.00;100505.34;6100208;23;20066;-96
2022/12/04 02:45:55;;;;;;;24.48;6.75;;;;;;;0.87;100.00;100523.88;6099920;23;20006;-96
2022/12/04 02:48:25;;;;;;;12.68;5.63;;;;;;;1.17;100.00;100518.31;6099802;23;20014;-96
2022/12/04 02:50:53;;;;;;;20.67;6.60;;;;;;;1.64;100.00;100554.72;6100518;23;20006;-95
2022/12/04 02:53:25;;;;;;;15.43;6.28;;;;;;;1.44;100.00;100513.56;6099946;23;20003;-96
2022/12/04 02:55:56;;;;;;;15.20;5.15;;;;;;;1.48;100.00;100517.72;6098894;23;20006;-96
2022/12/04 02:58:30;;;;;;;12.40;5.03;;;;;;;1.52;100.00;100506.63;6098803;23;20026;-96
2022/12/04 03:00:59;;;;;;;11.57;5.35;;;;;;;1.62;100.00;100503.03;6098489;23;20018;-95
2022/12/04 03:03:31;;;;;;;10.98;5.88;;;;;;;1.81;100.00;100516.25;6099214;23;20417;-95
2022/12/04 03:05:57;;;;;;;13.02;5.60;;;;;;;2.21;98.23;100550.22;6100300;23;20077;-96
2022/12/04 03:08:30;;;;;;;18.33;5.32;;;;;;;1.99;98.76;100509.09;6099754;23;20010;-96
2022/12/04 03:10:59;;;;;;;17.58;6.90;;;;;;;2.10;96.89;100507.16;6099343;23;20030;-96
2022/12/04 03:13:38;;;;;;;11.77;5.13;;;;;;;2.42;96.86;100529.38;6098855;23;20013;-96
2022/12/04 03:16:26;;;;;;;9.30;4.90;;;;;;;2.08;97.83;100494.47;6100197;23;20030;-96
2022/12/04 03:19:08;;;;;;;10.93;5.15;;;;;;;2.00;98.37;100496.34;6100059;23;20002;-95
2022/12/04 03:21:36;;;;;;;;;;;;;;;2.44;96.63;100526.78;6099495;23;20018;-95
2022/12/04 03:24:11;;;;;;;11.15;5.50;;;;;;;2.25;95.50;100485.63;6098598;23;19936;-96
2022/12/04 03:26:46;;;;;;;12.40;5.20;;;;;;;2.23;97.06;100503.47;6098876;23;19998;-95
2022/12/04 03:29:18;;;;;;;12.80;5.38;;;;;;;2.31;97.45;100531.31;6099156;23;19999;-96
2022/12/04 03:31:59;;;;;;;8.98;5.50;;;;;;;2.07;96.94;100487.72;6099861;23;20109;-96
2022/12/04 03:34:46;;;;;;;12.70;6.32;;;;;;;2.28;96.17;100491.47;6099360;23;20013;-95
2022/12/04 03:37:18;;;;;;;15.90;5.00;;;;;;;2.21;94.45;100494.19;6099467;23;20018;-96
2022/12/04 03:39:50;;;;;;;14.38;5.95;;;;;;;2.35;95.99;100532.94;6099195;23;20078;-95
2022/12/04 03:42:27;;;;;;;9.80;4.72;;;;;;;2.14;96.89;100519.78;6099195;23;20026;-96
2022/12/04 03:45:01;;;;;;;17.10;6.07;;;;;;;2.24;96.00;100524.69;6099269;23;20417;-94
2022/12/04 03:48:03;;;;;;;17.30;6.15;;;;;;;2.30;93.78;100510.09;6100313;23;20006;-95
2022/12/04 03:50:41;;;;;;;15.77;5.55;;;;;;;2.39;93.28;100529.44;6091268;23;20014;-96
2022/12/04 03:53:17;;;;;;;17.08;6.00;;;;;;;2.25;93.24;100516.19;6099487;23;20006;-96
2022/12/04 03:55:58;;;;;;;12.68;6.30;;;;;;;2.20;91.83;100498.47;6101155;23;20010;-95
2022/12/04 03:58:29;;;;;;;13.80;6.47;;;;;;;2.14;90.64;100488.38;6099257;23;20425;-95
2022/12/04 04:00:57;;;;;;;12.80;5.13;;;;;;;2.27;90.85;100499.16;6098276;23;19999;-96
2022/12/04 04:03:49;;;;;;;12.00;5.70;;;;;;;2.39;90.37;100505.66;6098090;23;20088;-95
2022/12/04 04:06:24;;;;;;;14.75;5.55;;;;;;;2.30;90.84;100481.25;6097393;23;19999;-95
2022/12/04 04:08:54;;;;;;;12.65;5.55;;;;;;;2.36;91.07;100491.28;6098138;23;20006;-94
2022/12/04 04:11:26;;;;;;;17.58;6.50;;;;;;;2.31;92.01;100486.31;6098071;23;20029;-95
2022/12/04 04:25:14;;;;;;;11.52;4.90;;;;;;;2.44;91.84;100504.72;6099618;23;20014;-95
2022/12/04 04:27:40;;;;;;;9.65;5.05;;;;;;;2.26;93.12;100485.56;6097401;23;20003;-95
2022/12/04 04:30:08;;;;;;;12.15;5.70;;;;;;;2.39;91.61;100498.88;6096438;23;20059;-95
2022/12/04 04:32:52;;;;;;;10.88;5.22;;;;;;;2.48;92.49;100524.13;6096991;23;20077;-95
2022/12/04 04:35:25;;;;;;;13.55;5.18;;;;;;;2.36;93.24;100493.84;6098025;23;20010;-96
2022/12/04 04:38:17;;;;;;;10.45;5.35;;;;;;;2.53;91.67;100522.31;6097032;23;20014;-95
2022/12/04 04:40:55;;;;;;;11.90;5.20;;;;;;;2.52;92.65;100530.00;6097294;23;20010;-94
2022/12/04 04:43:26;;;;;;;9.63;5.13;;;;;;;2.44;92.49;100519.13;6098337;23;20007;-95
2022/12/04 04:46:12;;;;;;;10.77;4.95;;;;;;;2.23;93.09;100487.38;6096667;23;20045;-95
2022/12/04 04:48:47;;;;;;;13.57;5.80;;;;;;;2.20;92.83;100489.97;6098026;23;20007;-95
2022/12/04 04:51:13;;;;;;;16.10;5.60;;;;;;;2.39;93.19;100498.88;6098154;23;20002;-94
2022/12/04 04:53:46;;;;;;;11.82;5.15;;;;;;;2.36;93.91;100491.28;6098118;23;20014;-95
2022/12/04 04:56:13;;;;;;;13.55;6.30;;;;;;;2.14;94.70;100465.47;6099526;23;20003;-96
2022/12/04 04:58:38;;;;;;;13.93;5.07;;;;;;;2.34;94.55;100500.66;6099579;23;20010;-94
2022/12/04 05:01:14;;;;;;;13.35;5.97;;;;;;;2.29;95.18;100497.41;6099107;23;20066;-95
2022/12/04 05:03:40;;;;;;;11.57;5.85;;;;;;;2.09;95.74;100467.28;6098512;23;20002;-96
2022/12/04 05:06:06;;;;;;;15.85;6.00;;;;;;;2.31;96.90;100490.56;6098302;23;20009;-95
2022/12/04 05:08:32;;;;;;;14.18;6.15;;;;;;;1.90;97.65;100465.16;6098317;23;20010;-95
2022/12/04 05:10:58;;;;;;;13.27;6.60;;;;;;;2.00;98.01;100473.44;6097870;23;20002;-94
2022/12/04 05:13:24;;;;;;;15.20;6.22;;;;;;;2.12;99.07;100490.13;6097417;23;20021;-96
2022/12/04 05:16:04;;;;;;;16.75;5.93;;;;;;;2.09;99.14;100483.41;6097377;23;20349;-95
2022/12/04 05:18:31;;;;;;;19.35;6.88;;;;;;;1.92;99.54;100472.75;6097660;23;19997;-95
2022/12/04 05:20:57;;;;;;;13.38;6.40;;;;;;;2.04;99.89;100492.84;6096728;23;20006;-95
2022/12/04 05:23:22;;;;;;;18.55;7.07;;;;;;;1.81;100.00;100465.34;6096521;23;20002;-96
2022/12/04 05:25:48;;;;;;;14.45;6.13;;;;;;;1.80;100.00;100485.72;6097718;23;20521;-95
2022/12/04 05:28:14;;;;;;;17.08;7.85;;;;;;;1.74;100.00;100473.16;6097491;23;20044;-95
2022/12/04 05:30:40;;;;;;;16.08;6.88;;;;;;;1.92;100.00;100508.38;6097522;23;20010;-95
2022/12/04 05:33:05;;;;;;;12.82;6.38;;;;;;;1.90;100.00;100497.38;6097144;23;20006;-94
2022/12/04 05:35:31;;;;;;;15.98;6.60;;;;;;;1.89;100.00;100500.81;6097177;23;20009;-94
2022/12/04 05:37:56;;;;;;;15.90;7.03;;;;;;;1.97;100.00;100480.28;6096438;23;20082;-95
2022/12/04 05:40:22;;;;;;;12.05;6.60;;;;;;;1.86;100.00;100480.53;6095794;23;20010;-96
2022/12/04 05:42:48;;;;;;;15.30;6.40;;;;;;;1.98;100.00;100499.78;6096404;23;20014;-94
2022/12/04 05:45:13;;;;;;;21.08;8.45;;;;;;;1.91;100.00;100471.09;6096065;23;20034;-95
2022/12/04 05:47:40;;;;;;;18.20;6.50;;;;;;;1.83;100.00;100485.66;6096356;23;20455;-95
2022/12/04 05:50:07;;;;;;;12.32;6.50;;;;;;;1.92;100.00;100498.19;6096996;23;20006;-95
2022/12/04 05:52:33;;;;;;;15.68;6.95;;;;;;;1.81;100.00;100484.88;6096916;23;20452;-95
2022/12/04 05:54:58;;;;;;;18.52;7.40;;;;;;;1.91;99.11;100497.38;6096653;23;20002;-94
2022/12/04 05:57:24;;;;;;;17.92;9.02;;;;;;;1.97;98.59;100491.28;6096201;23;20456;-94
2022/12/04 05:59:50;;;;;;;11.63;6.72;;;;;;;1.77;100.00;100493.44;6095995;23;20002;-95
2022/12/04 06:02:16;;;;;;;14.13;7.57;;;;;;;1.77;100.00;100478.16;6097227;23;20433;-95
2022/12/04 06:04:41;;;;;;;16.05;6.70;;;;;;;1.90;100.00;100480.44;6098128;23;20007;-96
2022/12/04 06:07:09;;;;;;;18.58;7.40;;;;;;;1.84;100.00;100464.44;6098591;23;20090;-95
2022/12/04 06:09:34;;;;;;;15.98;7.63;;;;;;;1.92;100.00;100488.84;6098726;23;20429;-96
2022/12/04 06:12:00;;;;;;;21.42;9.50;;;;;;;1.93;98.01;100484.63;6097946;23;20045;-95
2022/12/04 06:14:25;;;;;;;16.10;8.25;;;;;;;1.94;97.26;100496.47;6097970;23;20090;-95
2022/12/04 06:16:51;;;;;;;12.43;6.85;;;;;;;1.95;97.71;100493.03;6097444;23;20003;-95
2022/12/04 06:19:19;;;;;;;16.98;7.45;;;;;;;2.16;97.55;100490.91;6097611;23;20009;-95
2022/12/04 06:21:47;;;;;;;18.27;7.05;;;;;;;1.91;97.13;100460.91;6097323;23;20014;-95
2022/12/04 06:24:21;;;;;;;16.63;7.13;;;;;;;1.81;98.39;100451.78;6098511;23;20002;-95
2022/12/04 06:26:48;;;;;;;15.43;7.45;;;;;;;2.25;98.37;100493.25;6097633;23;20010;-96
2022/12/04 06:29:14;;;;;;;15.73;7.90;;;;;;;2.02;98.31;100455.56;6097420;23;20013;-96
2022/12/04 06:31:40;;;;;;;15.07;7.38;;;;;;;2.03;96.79;100475.91;6096721;23;20042;-96
2022/12/04 06:34:07;;;;;;;14.57;7.68;;;;;;;1.92;99.05;100458.31;6097214;23;20014;-94
2022/12/04 06:36:33;;;;;;;19.35;7.30;;;;;;;1.99;98.09;100471.75;6096701;23;20006;-96
2022/12/04 06:38:59;;;;;;;15.10;7.95;;;;;;;1.89;100.00;100462.63;6097687;23;20038;-96
2022/12/04 06:41:25;;;;;;;19.38;9.10;;;;;;;2.07;99.56;100491.94;6097537;23;20039;-96
2022/12/04 06:43:51;;;;;;;22.65;9.45;;;;;;;2.00;98.07;100475.13;6097914;23;20006;-95
2022/12/04 06:46:19;;;;;;;18.05;9.00;;;;;;;1.97;98.26;100462.47;6096968;23;20494;-95
2022/12/04 06:48:45;;;;;;;18.05;9.35;;;;;;;1.85;97.28;100451.69;6096794;23;20002;-95
2022/12/04 06:51:20;;;;;;;24.48;9.55;;;;;;;2.12;97.86;100485.91;6097522;23;20097;-96
2022/12/04 06:53:45;;;;;;;24.90;12.27;;;;;;;2.08;95.70;100498.72;6096675;23;19990;-95
2022/12/04 06:56:16;;;;;;;18.23;8.70;;;;;;;1.90;95.79;100454.13;6096930;23;20010;-96
2022/12/04 06:58:49;;;;;;;18.90;9.47;;;;;;;1.95;96.34;100465.03;6097057;23;20085;-96
2022/12/04 07:01:18;;;;;;;21.70;9.88;;;;;;;1.82;95.77;100451.75;6098338;23;20010;-95
2022/12/04 07:03:44;;;;;;;20.17;9.77;;;;;;;1.87;95.87;100451.66;6097975;23;20044;-96
2022/12/04 07:06:14;;;;;;;18.90;9.77;;;;;;;1.93;96.32;100457.44;6096841;23;20006;-96
2022/12/04 07:08:42;;;;;;;20.27;11.52;;;;;;;1.82;95.34;100440.72;6097678;23;20089;-95
2022/12/04 07:11:08;;;;;;;24.33;10.70;;;;;;;1.86;95.13;100452.53;6098371;23;20006;-96
2022/12/04 07:13:34;;;;;;;24.00;10.95;;;;;;;1.84;96.13;100474.63;6097692;23;20014;-94
2022/12/04 07:16:01;;;;;;;25.60;12.50;;;;;;;1.90;95.38;100497.38;6097450;23;20034;-95
2022/12/04 07:18:28;;;;;;;26.85;12.65;;;;;;;1.73;95.95;100448.56;6096809;23;20011;-95
2022/12/04 07:20:54;;;;;;;22.13;10.70;;;;;;;1.85;96.39;100476.28;6097148;23;20010;-95
2022/12/04 07:23:19;;;;;;;20.73;11.88;;;;;;;1.78;96.35;100465.41;6097095;23;20065;-95
2022/12/04 07:25:45;;;;;;;25.92;11.65;;;;;;;1.62;96.91;100453.88;6097497;23;20002;-96
2022/12/04 07:28:10;;;;;;;23.23;12.32;;;;;;;1.79;96.98;100461.16;6097740;23;20449;-95
2022/12/04 07:30:37;;;;;;;27.25;13.15;;;;;;;1.84;97.57;100472.06;6097158;23;20010;-95
2022/12/04 07:33:03;;;;;;;28.77;14.27;;;;;;;1.79;97.86;100479.81;6097382;23;20492;-95
2022/12/04 07:35:28;;;;;;;28.63;12.40;;;;;;;1.64;99.94;100463.16;6097720;23;20007;-95
2022/12/04 07:40:29;;;;;;;26.15;13.10;;;;;;;1.65;100.00;100462.25;6115748;23;20018;-94
2022/12/04 07:42:55;;;;;;;29.40;13.77;;;;;;;1.63;100.00;100465.72;6101661;23;20021;-95
2022/12/04 07:45:20;;;;;;;33.60;13.75;;;;;;;2.05;100.00;100498.75;6103411;23;20350;-96
2022/12/04 07:47:46;;;;;;;32.25;13.43;;;;;;;1.90;100.00;100490.59;6102701;23;20033;-95
2022/12/04 07:50:12;;;;;;;27.55;15.00;;;;;;;1.85;100.00;100483.91;6102690;23;20010;-96
2022/12/04 07:52:40;;;;;;;27.67;13.82;;;;;;;1.67;100.00;100463.06;6103278;23;20097;-96
2022/12/04 07:55:11;;;;;;;37.40;15.20;;;;;;;1.77;100.00;100488.34;6104800;23;20028;-95
2022/12/04 07:57:51;;;;;;;41.08;15.88;;;;;;;1.60;100.00;100481.03;6103055;23;20006;-96
2022/12/04 08:00:20;;;;;;;31.08;15.25;;;;;;;1.73;100.00;100496.91;6102200;23;20002;-95
2022/12/04 08:02:45;;;;;;;38.50;16.83;;;;;;;1.52;100.00;100467.66;6101970;23;20014;-96
2022/12/04 08:05:19;;;;;;;33.88;16.17;;;;;;;1.55;100.00;100472.66;6102620;23;20048;-96
2022/12/04 08:07:45;;;;;;;39.28;17.10;;;;;;;1.57;100.00;100476.84;6103008;23;20010;-95
2022/12/04 08:10:11;;;;;;;32.53;15.95;;;;;;;1.63;100.00;100475.88;6126016;23;20341;-96
2022/12/04 08:12:36;;;;;;;39.22;17.50;;;;;;;1.48;100.00;100464.31;6101891;23;20096;-96
2022/12/04 08:15:02;;;;;;;34.45;17.02;;;;;;;1.58;100.00;100483.59;6100647;23;20065;-95
2022/12/04 08:17:28;;;;;;;39.55;16.73;;;;;;;1.85;100.00;100512.78;6100410;23;20002;-96
2022/12/04 08:19:54;;;;;;;38.83;17.90;;;;;;;1.73;100.00;100501.97;6100680;23;20093;-95
2022/12/04 08:22:19;;;;;;;38.90;17.00;;;;;;;1.74;100.00;100493.50;6100922;23;20021;-95
2022/12/04 08:24:45;;;;;;;42.45;18.35;;;;;;;1.85;100.00;100502.59;6099990;23;20500;-96
2022/12/04 08:27:10;;;;;;;39.67;18.08;;;;;;;1.61;100.00;100503.91;6108479;23;20049;-96
2022/12/04 08:29:36;;;;;;;38.58;17.85;;;;;;;1.79;100.00;100512.88;6101237;23;20029;-95
2022/12/04 08:32:02;;;;;;;37.30;18.30;;;;;;;1.79;100.00;100506.97;6100937;23;20010;-95
2022/12/04 08:34:28;;;;;;;40.67;18.50;;;;;;;1.68;100.00;100485.13;6100648;23;20366;-95
2022/12/04 08:36:53;;;;;;;40.83;19.27;;;;;;;1.70;100.00;100503.72;6100181;23;20069;-96
2022/12/04 08:39:19;;;;;;;37.95;18.02;;;;;;;1.77;100.00;100513.78;6099916;23;20015;-96
2022/12/04 08:41:44;;;;;;;42.20;18.73;;;;;;;1.82;100.00;100522.16;6100811;23;20061;-95
2022/12/04 08:44:10;;;;;;;40.28;19.17;;;;;;;1.67;100.00;100503.78;6100482;23;20367;-95
2022/12/04 08:46:37;;;;;;;38.17;18.65;;;;;;;1.58;100.00;100501.41;6100578;23;20093;-95
2022/12/04 08:49:03;;;;;;;41.90;19.23;;;;;;;1.53;100.00;100502.38;6105913;23;20013;-95
2022/12/04 08:51:31;;;;;;;42.80;19.52;;;;;;;1.53;100.00;100495.59;6100700;23;20010;-96
2022/12/04 08:54:00;;;;;;;36.90;16.92;;;;;;;1.75;100.00;100500.25;6100374;23;20010;-96
2022/12/04 08:56:27;;;;;;;46.95;19.63;;;;;;;1.64;100.00;100503.03;6100788;23;20022;-95
2022/12/04 08:58:55;;;;;;;45.90;19.77;;;;;;;1.76;100.00;100507.03;6108332;23;20491;-96
2022/12/04 09:51:00;;;;;;;32.70;16.75;;;;;;;1.84;100.00;100520.44;6102120;23;20377;-95
2022/12/04 12:51:38;;;;;;;45.75;19.75;;;;;;;3.05;100.00;100566.16;5080992;27;20407;-94
2022/12/04 12:54:31;;;;;;;35.90;17.05;;;;;;;3.09;100.00;100567.72;5072073;28;20376;-95
2022/12/04 12:57:11;;;;;;;38.55;19.60;;;;;;;2.95;100.00;100573.19;5036158;28;20029;-96
2022/12/04 12:59:46;;;;;;;37.88;19.55;;;;;;;2.91;100.00;100563.91;5031938;28;20041;-95
2022/12/04 13:02:11;;;;;;;38.20;18.77;;;;;;;2.96;100.00;100582.50;5031415;28;20034;-94
2022/12/04 13:04:42;;;;;;;38.88;19.10;;;;;;;2.73;100.00;100549.03;5031318;28;20088;-95
2022/12/04 13:07:07;;;;;;;35.70;19.05;;;;;;;2.85;100.00;100546.22;5030841;28;20040;-96
2022/12/04 13:09:36;;;;;;;32.90;17.55;;;;;;;2.88;100.00;100547.84;5030835;28;20033;-94
2022/12/04 13:12:09;;;;;;;32.42;15.68;;;;;;;3.05;100.00;100555.09;5031450;28;20018;-95
2022/12/04 13:14:35;;;;;;;39.30;17.65;;;;;;;2.85;100.00;100523.25;5031463;28;20479;-94
2022/12/04 13:17:09;;;;;;;32.25;16.23;;;;;;;2.89;100.00;100539.34;5031575;28;20105;-95
2022/12/04 13:19:42;;;;;;;33.88;17.85;;;;;;;2.91;100.00;100558.00;5029879;28;20030;-95
2022/12/04 13:22:25;;;;;;;37.10;17.25;;;;;;;2.96;100.00;100545.97;5030891;28;20467;-96
2022/12/04 13:25:07;;;;;;;35.92;17.38;;;;;;;3.05;100.00;100545.75;5030966;28;20021;-96
2022/12/04 13:27:39;;;;;;;39.45;16.30;;;;;;;3.02;100.00;100555.16;5030530;28;20022;-95
2022/12/04 13:30:23;;;;;;;38.95;18.77;;;;;;;3.09;100.00;100546.50;5028335;28;20650;-95
2022/12/04 13:33:11;;;;;;;41.35;18.83;;;;;;;3.06;100.00;100551.69;5029808;28;20025;-95
2022/12/04 13:35:55;;;;;;;38.10;16.85;;;;;;;3.02;100.00;100561.09;5029884;28;20515;-96
2022/12/04 13:38:34;;;;;;;38.85;18.35;;;;;;;3.17;100.00;100564.97;5028528;28;20025;-95
2022/12/04 13:41:03;;;;;;;35.33;18.33;;;;;;;3.12;100.00;100554.06;5028161;28;20069;-93
2022/12/04 13:43:44;;;;;;;38.20;18.02;;;;;;;3.09;100.00;100551.59;5027803;28;20021;-95
2022/12/04 13:46:32;;;;;;;35.22;17.20;;;;;;;3.26;100.00;100558.81;5061110;28;20045;-96
2022/12/04 13:49:16;;;;;;;44.58;17.92;;;;;;;3.12;100.00;100564.25;5027796;28;20040;-96
2022/12/04 13:51:44;;;;;;;37.20;16.67;;;;;;;2.96;100.00;100541.69;5018277;28;20034;-96
2022/12/04 13:54:10;;;;;;;37.65;18.92;;;;;;;3.16;100.00;100570.97;5014671;28;20476;-96
2022/12/04 13:56:37;;;;;;;38.10;17.40;;;;;;;3.12;100.00;100560.03;5014545;28;20084;-96
2022/12/04 13:59:05;;;;;;;37.45;16.95;;;;;;;2.92;100.00;100545.19;5014503;28;20492;-96
2022/12/04 14:01:40;;;;;;;39.50;17.73;;;;;;;2.90;100.00;100541.00;5014487;28;20038;-96
2022/12/04 14:04:07;;;;;;;39.53;18.05;;;;;;;2.94;100.00;100538.34;5014446;28;20026;-96
2022/12/04 14:06:40;;;;;;;37.53;16.60;;;;;;;3.15;100.00;100566.75;5014261;28;20036;-96
2022/12/04 14:09:38;;;;;;;44.17;18.20;;;;;;;3.08;100.00;100560.97;5015417;28;20058;-95
2022/12/04 14:12:10;;;;;;;34.58;15.15;;;;;;;2.94;100.00;100540.06;5010486;28;20487;-96
2022/12/04 14:14:49;;;;;;;37.20;16.92;;;;;;;2.90;100.00;100534.22;5013999;28;20024;-95
2022/12/04 14:17:27;;;;;;;41.80;19.17;;;;;;;3.08;100.00;100557.59;5013838;28;20030;-94
2022/12/04 14:19:59;;;;;;;34.42;16.98;;;;;;;3.14;100.00;100562.50;5013704;28;20038;-94
2022/12/04 14:22:44;;;;;;;;;;;;;;;3.12;100.00;100566.81;5014473;28;20026;-93
2022/12/04 14:25:13;;;;;;;34.88;16.15;;;;;;;3.12;100.00;100569.38;5013171;28;19913;-94
2022/12/04 14:27:41;;;;;;;33.47;15.82;;;;;;;3.15;100.00;100569.31;5014128;28;20456;-93
2022/12/04 14:30:18;;;;;;;34.08;17.02;;;;;;;3.12;100.00;100557.47;5015594;28;20030;-93
2022/12/04 14:32:46;;;;;;;38.50;17.23;;;;;;;3.17;100.00;100573.50;5015172;28;20088;-94
2022/12/04 14:35:15;;;;;;;38.47;18.38;;;;;;;2.93;100.00;100529.03;5015229;28;20084;-93
2022/12/04 14:37:51;;;;;;;32.22;15.98;;;;;;;3.02;100.00;100534.78;5015420;28;20041;-94
2022/12/04 14:40:26;;;;;;;39.50;17.33;;;;;;;2.99;100.00;100544.16;5015193;28;20442;-95
2022/12/04 14:42:52;;;;;;;38.10;17.73;;;;;;;3.12;100.00;100552.38;5015379;28;20034;-94
2022/12/04 14:45:32;;;;;;;29.65;16.13;;;;;;;3.26;100.00;100582.63;5014857;28;20034;-95
2022/12/04 14:48:31;;;;;;;37.10;17.27;;;;;;;3.14;100.00;100575.25;5013578;28;20029;-95
2022/12/04 14:51:06;;;;;;;31.95;16.48;;;;;;;3.20;100.00;100581.06;5028978;28;20399;-96
2022/12/04 14:53:47;;;;;;;35.55;17.42;;;;;;;3.21;100.00;100576.78;5033068;28;20024;-95
2022/12/04 14:56:33;;;;;;;29.17;15.05;;;;;;;3.34;100.00;100579.88;5033243;28;20037;-96
2022/12/04 14:59:05;;;;;;;37.97;17.92;;;;;;;3.23;100.00;100585.25;5037333;28;20025;-95
2022/12/04 15:24:26;;;;;;;36.03;16.42;;;;;;;3.31;100.00;100583.34;5098417;23;20458;-92
2022/12/04 15:27:58;;;;;;;32.67;16.30;;;;;;;3.26;100.00;100566.47;5031376;28;20034;-94
2022/12/04 18:41:09;;;;;;;23.35;12.75;;;;;;;2.94;95.84;100696.41;6252611;23;20338;-93
2022/12/04 18:44:48;;;;;;;;;;;;;;;;;;;;;
2022/12/04 23:29:16;;;;;;;;;;;;;;;;;;;;;
2022/12/04 23:46:15;;;;;;;17.50;9.75;;;;;;;2.17;98.99;100877.06;5904621;24;20389;-96
